Time;durP1;ratioP1;P1;durP2;ratioP2;P2;SDS_P1;SDS_P2;PMS_P1;PMS_P2;Temp;Humidity;BMP_temperature;BMP_pressure;BME280_temperature;BME280_humidity;BME280_pressure;Samples;Min_cycle;Max_cycle;Signal;HPM_P1;HPM_P2
2022/09/19 00:01:16;;;;;;;2.03;0.90;;;;;;;10.15;72.09;101143.44;5039181;28;20661;-83
2022/09/19 00:03:43;;;;;;;2.15;0.93;;;;;;;10.15;71.73;101154.56;5043749;28;20596;-83
2022/09/19 00:06:10;;;;;;;3.15;0.85;;;;;;;10.10;71.73;101150.94;5026322;28;20059;-83
2022/09/19 00:08:37;;;;;;;3.78;1.00;;;;;;;10.07;72.28;101150.38;5022480;28;20483;-83
2022/09/19 00:11:02;;;;;;;3.00;0.80;;;;;;;10.03;71.96;101151.22;5023253;28;20485;-83
2022/09/19 00:13:28;;;;;;;2.65;0.93;;;;;;;10.01;72.28;101142.31;5039137;28;20024;-82
2022/09/19 00:15:54;;;;;;;4.10;1.00;;;;;;;10.00;72.65;101144.28;5044712;28;20608;-82
2022/09/19 00:18:19;;;;;;;1.55;0.80;;;;;;;9.98;72.38;101143.69;5060663;28;20028;-82
2022/09/19 00:20:47;;;;;;;2.00;0.90;;;;;;;9.99;71.85;101142.59;5063451;28;20101;-82
2022/09/19 00:26:02;;;;;;;2.97;1.20;;;;;;;9.94;72.16;101138.97;5037001;28;20055;-82
2022/09/19 00:28:28;;;;;;;3.05;1.10;;;;;;;9.89;72.41;101145.34;5028978;28;20045;-82
2022/09/19 00:30:55;;;;;;;4.15;1.00;;;;;;;9.85;72.54;101141.44;5021480;28;20024;-82
2022/09/19 00:33:21;;;;;;;3.03;0.98;;;;;;;9.85;72.55;101147.00;5041867;28;20070;-83
2022/09/19 00:35:54;;;;;;;1.25;0.93;;;;;;;9.83;72.80;101138.97;5037736;28;20657;-83
2022/09/19 00:38:23;;;;;;;3.13;1.10;;;;;;;9.80;72.80;101144.19;5044439;28;20085;-83
2022/09/19 00:40:49;;;;;;;1.73;1.08;;;;;;;9.81;72.55;101138.41;5062704;28;20036;-82
2022/09/19 00:43:15;;;;;;;3.22;1.20;;;;;;;9.77;72.56;101140.03;5058807;28;20030;-82
2022/09/19 00:45:40;;;;;;;3.75;1.00;;;;;;;9.79;72.68;101142.53;5044472;28;20078;-81
2022/09/19 00:48:06;;;;;;;2.08;1.05;;;;;;;9.74;72.94;101139.75;5043759;28;20024;-83
2022/09/19 00:50:32;;;;;;;3.08;1.10;;;;;;;9.75;72.88;101133.94;5028523;28;20397;-83
2022/09/19 00:53:02;;;;;;;2.72;0.90;;;;;;;9.73;73.05;101143.66;5080306;28;20036;-83
2022/09/19 00:55:27;;;;;;;2.20;1.00;;;;;;;9.71;73.39;101129.22;5043790;28;20024;-82
2022/09/19 00:57:58;;;;;;;1.85;1.20;;;;;;;9.70;73.10;101133.94;5057413;28;20389;-84
2022/09/19 01:00:24;;;;;;;2.30;1.10;;;;;;;9.70;73.01;101127.56;5056766;28;20611;-82
2022/09/19 01:02:51;;;;;;;3.03;1.20;;;;;;;9.69;73.38;101134.19;5045668;28;20029;-83
2022/09/19 01:05:17;;;;;;;3.33;1.30;;;;;;;9.65;73.24;101138.63;5046876;28;20020;-83
2022/09/19 01:07:55;;;;;;;2.45;0.95;;;;;;;9.62;73.34;101132.50;5060793;28;20030;-82
2022/09/19 01:10:43;;;;;;;3.78;1.23;;;;;;;9.60;73.41;101134.72;5062750;28;20051;-83
2022/09/19 01:13:11;;;;;;;1.27;1.08;;;;;;;9.63;73.15;101127.78;5035706;28;20637;-83
2022/09/19 01:15:54;;;;;;;2.50;1.00;;;;;;;9.59;73.27;101132.22;5060761;28;20032;-83
2022/09/19 01:18:31;;;;;;;;;;;;;;;9.57;73.13;101135.25;5041340;28;20086;-83
2022/09/19 01:24:19;;;;;;;2.53;1.00;;;;;;;9.52;73.64;101129.69;5062130;28;20085;-83
2022/09/19 01:26:58;;;;;;;2.85;1.10;;;;;;;9.51;73.57;101130.81;5056277;28;20032;-82
2022/09/19 01:29:39;;;;;;;2.00;0.98;;;;;;;9.54;73.61;101123.88;5077104;28;20039;-82
2022/09/19 01:32:05;;;;;;;4.85;1.25;;;;;;;9.54;73.47;101129.44;5044249;28;20032;-82
2022/09/19 01:34:33;;;;;;;2.65;0.90;;;;;;;9.53;73.30;101133.31;5044697;28;20032;-83
2022/09/19 01:37:03;;;;;;;2.55;1.33;;;;;;;9.48;73.70;101125.00;5043746;28;20362;-82
2022/09/19 01:39:30;;;;;;;3.28;1.15;;;;;;;9.47;73.58;101129.69;5057909;28;20032;-82
2022/09/19 01:41:58;;;;;;;2.45;1.10;;;;;;;9.44;73.52;101124.66;5060261;28;20060;-82
2022/09/19 01:44:24;;;;;;;2.28;1.25;;;;;;;9.46;73.52;101119.69;5061546;28;20374;-83
2022/09/19 01:47:09;;;;;;;2.90;1.23;;;;;;;9.46;73.72;101127.19;5060988;28;20032;-82
2022/09/19 01:50:08;;;;;;;4.50;1.17;;;;;;;9.43;73.87;101123.00;5059820;28;21248;-82
2022/09/19 01:52:53;;;;;;;2.25;0.80;;;;;;;9.40;74.09;101129.94;5061199;28;20020;-82
2022/09/19 01:55:41;;;;;;;2.35;1.00;;;;;;;9.36;74.33;101126.06;5064464;28;20036;-83
2022/09/19 01:58:31;;;;;;;2.25;1.02;;;;;;;9.36;74.04;101125.19;5051895;28;20040;-82
2022/09/19 02:01:08;;;;;;;3.55;1.05;;;;;;;9.37;74.02;101130.47;5075012;28;20504;-81
2022/09/19 02:03:36;;;;;;;4.32;1.00;;;;;;;9.34;74.35;101122.72;5042977;28;20043;-83
2022/09/19 02:06:27;;;;;;;1.90;1.00;;;;;;;9.28;74.37;101128.50;5060333;28;20024;-79
2022/09/19 02:09:00;;;;;;;2.55;1.00;;;;;;;9.26;74.47;101123.22;5053362;28;20032;-83
2022/09/19 02:11:27;;;;;;;5.15;0.90;;;;;;;9.25;74.19;101120.72;5064829;28;20039;-82
2022/09/19 02:14:07;;;;;;;2.78;1.00;;;;;;;9.23;74.45;101121.00;5025699;28;20028;-83
2022/09/19 02:17:03;;;;;;;2.03;1.08;;;;;;;9.21;74.50;101114.06;5042509;28;20021;-83
2022/09/19 02:19:37;;;;;;;1.80;1.02;;;;;;;9.17;74.78;101117.38;5059777;28;20039;-82
2022/09/19 02:22:05;;;;;;;2.40;1.08;;;;;;;9.17;74.59;101128.44;5043216;28;20031;-82
2022/09/19 02:24:33;;;;;;;2.83;1.27;;;;;;;9.12;74.61;101125.66;5057576;28;20028;-83
2022/09/19 02:27:07;;;;;;;2.95;1.20;;;;;;;9.12;74.88;101128.44;5035585;28;20028;-82
2022/09/19 02:29:33;;;;;;;1.90;0.90;;;;;;;9.10;74.66;101127.03;5041400;28;20389;-82
2022/09/19 02:31:59;;;;;;;1.95;1.20;;;;;;;9.06;74.73;101128.69;5076748;28;20028;-82
2022/09/19 02:34:25;;;;;;;2.22;1.00;;;;;;;9.02;75.08;101124.75;5056379;28;20032;-82
2022/09/19 02:37:01;;;;;;;3.38;1.48;;;;;;;9.01;74.91;101131.41;5036194;28;20020;-82
2022/09/19 02:39:28;;;;;;;3.88;1.08;;;;;;;9.00;75.13;101130.59;5044081;28;20070;-83
2022/09/19 02:41:59;;;;;;;3.65;1.00;;;;;;;9.01;74.84;101125.88;5055826;28;20032;-82
2022/09/19 02:44:30;;;;;;;1.75;0.98;;;;;;;8.99;75.11;101117.00;5061083;28;20132;-82
2022/09/19 02:47:13;;;;;;;2.92;0.90;;;;;;;8.96;75.12;101123.91;5061537;28;20111;-82
2022/09/19 02:50:00;;;;;;;2.00;1.20;;;;;;;8.93;74.93;101118.91;5061120;28;20043;-82
2022/09/19 02:52:28;;;;;;;3.05;1.13;;;;;;;8.90;74.79;101109.19;5040226;28;20035;-82
2022/09/19 02:54:55;;;;;;;3.42;1.13;;;;;;;8.88;75.34;101116.91;5031056;28;20059;-82
2022/09/19 02:57:21;;;;;;;1.70;1.30;;;;;;;8.87;74.97;101120.81;5047256;28;20100;-82
2022/09/19 02:59:48;;;;;;;2.97;1.10;;;;;;;8.84;75.32;101117.75;5058848;28;20036;-83
2022/09/19 03:02:22;;;;;;;2.58;1.05;;;;;;;8.82;74.95;101120.78;5044873;28;20112;-82
2022/09/19 03:04:53;;;;;;;2.40;1.30;;;;;;;8.80;75.42;101124.91;5027876;28;20024;-82
2022/09/19 03:07:30;;;;;;;1.00;0.90;;;;;;;8.76;75.66;101123.78;5062815;28;20047;-82
2022/09/19 03:10:12;;;;;;;2.67;1.10;;;;;;;8.75;75.31;101113.78;5073318;28;20028;-82
2022/09/19 03:12:52;;;;;;;3.08;1.20;;;;;;;8.72;75.52;101123.50;5064653;28;20029;-83
2022/09/19 03:15:24;;;;;;;1.48;1.10;;;;;;;8.67;75.58;101115.16;5028460;28;20025;-83
2022/09/19 03:17:50;;;;;;;1.38;1.00;;;;;;;8.68;75.52;101117.63;5044008;28;20051;-82
2022/09/19 03:20:16;;;;;;;1.90;1.02;;;;;;;8.66;75.74;101117.09;5064193;28;20032;-82
2022/09/19 03:22:41;;;;;;;2.15;1.33;;;;;;;8.65;75.61;101112.63;5044067;28;20527;-82
2022/09/19 03:25:08;;;;;;;2.30;0.95;;;;;;;8.64;75.54;101110.16;5041110;28;20032;-82
2022/09/19 03:27:35;;;;;;;4.05;1.38;;;;;;;8.63;75.52;101106.53;5041516;28;20044;-82
2022/09/19 03:30:01;;;;;;;2.58;1.20;;;;;;;8.60;75.78;101104.28;5060902;28;20052;-79
2022/09/19 03:32:27;;;;;;;1.30;1.02;;;;;;;8.57;75.63;101107.59;5063664;28;20035;-80
2022/09/19 03:34:55;;;;;;;2.45;1.20;;;;;;;8.55;76.03;101107.00;5061742;28;20032;-79
2022/09/19 03:37:21;;;;;;;1.83;1.20;;;;;;;8.56;76.01;101105.09;5028796;28;20027;-80
2022/09/19 03:39:47;;;;;;;4.70;1.50;;;;;;;8.53;75.97;101102.88;5058703;28;20108;-79
2022/09/19 03:42:14;;;;;;;2.45;1.17;;;;;;;8.50;76.12;101101.47;5036855;28;20089;-79
2022/09/19 03:44:39;;;;;;;2.30;1.27;;;;;;;8.49;76.10;101099.78;5052081;28;20028;-79
2022/09/19 03:47:05;;;;;;;2.53;1.30;;;;;;;8.45;76.03;101096.72;5037375;28;20035;-79
2022/09/19 03:49:30;;;;;;;4.25;1.40;;;;;;;8.47;76.07;101102.00;5060773;28;20035;-79
2022/09/19 03:51:59;;;;;;;1.60;1.20;;;;;;;8.45;76.24;101101.41;5059312;28;20052;-79
2022/09/19 03:54:25;;;;;;;3.53;1.52;;;;;;;8.43;76.22;101101.66;5046779;28;20035;-79
2022/09/19 03:56:50;;;;;;;2.08;1.50;;;;;;;8.41;76.16;101098.34;5060315;28;20051;-79
2022/09/19 03:59:16;;;;;;;2.47;1.33;;;;;;;8.39;76.41;101097.78;5060321;28;20028;-79
2022/09/19 04:01:41;;;;;;;2.03;1.20;;;;;;;8.37;76.20;101099.94;5043585;28;20041;-78
2022/09/19 04:04:07;;;;;;;3.65;1.65;;;;;;;8.41;76.26;101101.13;5041730;28;20032;-78
2022/09/19 04:06:32;;;;;;;1.65;1.10;;;;;;;8.36;76.36;101116.81;5008364;28;20029;-78
2022/09/19 04:09:00;;;;;;;2.50;1.20;;;;;;;8.37;76.25;101105.47;5042866;28;20765;-79
2022/09/19 04:11:27;;;;;;;2.75;1.50;;;;;;;8.38;76.48;101112.66;5026798;28;20090;-78
2022/09/19 04:13:53;;;;;;;1.80;1.33;;;;;;;8.34;76.45;101107.94;5026874;28;20029;-78
2022/09/19 04:16:19;;;;;;;1.70;1.23;;;;;;;8.31;76.39;101112.06;5049670;28;20374;-78
2022/09/19 04:18:50;;;;;;;2.90;1.30;;;;;;;8.33;76.40;101106.25;5042961;28;20043;-78
2022/09/19 04:21:16;;;;;;;3.28;1.30;;;;;;;8.30;76.74;101110.38;5054783;28;20476;-78
2022/09/19 04:23:42;;;;;;;1.63;1.30;;;;;;;8.31;76.53;101111.25;5036609;28;20033;-78
2022/09/19 04:26:09;;;;;;;1.92;1.30;;;;;;;8.26;76.47;101115.63;5047627;28;20067;-78
2022/09/19 04:28:35;;;;;;;1.60;1.10;;;;;;;8.24;76.54;101119.75;5033450;28;20029;-78
2022/09/19 04:31:01;;;;;;;1.33;1.10;;;;;;;8.22;76.69;101121.97;5037586;28;20024;-78
2022/09/19 04:33:27;;;;;;;2.85;1.33;;;;;;;8.21;76.55;101118.34;5048781;28;20111;-78
2022/09/19 04:35:52;;;;;;;3.42;1.23;;;;;;;8.22;76.42;101117.25;5037642;28;20056;-78
2022/09/19 04:38:18;;;;;;;2.55;1.30;;;;;;;8.19;76.63;101119.69;5028087;28;20020;-78
2022/09/19 04:40:47;;;;;;;1.90;1.30;;;;;;;8.17;76.37;101119.97;5049822;28;20027;-78
2022/09/19 04:43:15;;;;;;;1.30;1.17;;;;;;;8.16;76.86;101111.94;5035500;28;20028;-78
2022/09/19 04:45:44;;;;;;;2.25;1.10;;;;;;;8.12;76.71;101122.69;5037240;28;20389;-78
2022/09/19 04:48:09;;;;;;;1.77;1.23;;;;;;;8.13;76.94;101121.59;5030935;28;20086;-78
2022/09/19 04:50:35;;;;;;;1.27;1.10;;;;;;;8.10;77.00;101130.41;5060902;28;20033;-78
2022/09/19 04:53:01;;;;;;;4.00;1.33;;;;;;;8.10;76.84;101124.06;5060846;28;20077;-78
2022/09/19 04:55:27;;;;;;;1.95;1.00;;;;;;;8.11;76.54;101123.81;5031383;28;20032;-78
2022/09/19 04:57:56;;;;;;;2.88;1.25;;;;;;;8.11;76.77;101122.94;5037769;28;20040;-78
2022/09/19 05:00:38;;;;;;;1.73;1.00;;;;;;;8.05;76.90;101116.53;5024729;28;20069;-78
2022/09/19 05:03:12;;;;;;;1.88;1.20;;;;;;;8.09;76.67;101116.88;5053027;28;20042;-78
2022/09/19 05:05:44;;;;;;;1.55;1.15;;;;;;;8.06;76.84;101121.81;5040788;28;20089;-78
2022/09/19 05:08:15;;;;;;;1.98;1.23;;;;;;;8.01;76.89;101110.69;5075208;28;20028;-78
2022/09/19 05:10:41;;;;;;;1.80;1.20;;;;;;;8.00;76.89;101122.03;5044808;28;20036;-78
2022/09/19 05:13:07;;;;;;;1.70;1.15;;;;;;;7.99;76.87;101120.34;5075325;28;20135;-78
2022/09/19 05:15:32;;;;;;;2.05;1.05;;;;;;;8.01;76.81;101115.41;5051269;28;20035;-78
2022/09/19 05:17:58;;;;;;;2.45;1.40;;;;;;;7.98;76.96;101113.16;5048985;28;20431;-78
2022/09/19 05:20:26;;;;;;;3.03;1.10;;;;;;;8.00;76.72;101122.03;5066331;28;20039;-78
2022/09/19 05:23:00;;;;;;;2.45;1.30;;;;;;;7.95;76.69;101113.69;5038072;28;20024;-78
2022/09/19 05:25:27;;;;;;;3.17;1.20;;;;;;;7.95;76.98;101122.00;5057273;28;20055;-78
2022/09/19 05:27:54;;;;;;;1.90;1.30;;;;;;;7.92;76.70;101126.13;5055569;28;20033;-78
2022/09/19 05:30:23;;;;;;;1.38;1.23;;;;;;;7.91;77.14;101129.13;5057184;28;20043;-78
2022/09/19 05:32:48;;;;;;;1.90;1.17;;;;;;;7.88;76.85;101130.47;5059597;28;20036;-78
2022/09/19 05:35:14;;;;;;;1.60;1.08;;;;;;;7.90;77.20;101135.75;5061325;28;20038;-77
2022/09/19 05:37:41;;;;;;;3.78;1.30;;;;;;;7.86;77.08;101131.88;5046799;28;20097;-78
2022/09/19 05:40:07;;;;;;;2.55;1.10;;;;;;;7.88;76.88;101130.47;5072621;28;20058;-78
2022/09/19 05:42:34;;;;;;;2.45;1.20;;;;;;;7.83;77.04;101131.28;5040665;28;20078;-79
2022/09/19 05:45:00;;;;;;;1.30;1.10;;;;;;;7.86;77.07;101140.16;5041879;28;20063;-79
2022/09/19 05:47:25;;;;;;;2.40;1.20;;;;;;;7.84;77.21;101138.47;5042993;28;20036;-78
2022/09/19 05:49:51;;;;;;;2.65;1.40;;;;;;;7.84;76.94;101140.41;5058849;28;20427;-79
2022/09/19 05:55:00;;;;;;;1.88;1.33;;;;;;;7.79;76.99;101148.66;5074429;28;20053;-78
2022/09/19 05:57:26;;;;;;;1.45;1.10;;;;;;;7.83;76.74;101147.88;5041032;28;20024;-78
2022/09/19 05:59:51;;;;;;;1.92;1.20;;;;;;;7.80;76.95;101148.41;5056895;28;20040;-78
2022/09/19 06:02:20;;;;;;;3.42;1.50;;;;;;;7.76;77.38;101144.47;5036858;28;20548;-79
2022/09/19 06:04:45;;;;;;;1.73;1.13;;;;;;;7.78;77.20;101142.28;5074799;28;20028;-78
2022/09/19 06:07:11;;;;;;;2.58;1.20;;;;;;;7.77;77.29;101148.91;5063308;28;20075;-78
2022/09/19 06:09:37;;;;;;;2.85;1.25;;;;;;;7.79;77.21;101151.41;5063703;28;20028;-78
2022/09/19 06:12:03;;;;;;;3.17;1.15;;;;;;;7.77;77.21;101148.91;5029410;28;20033;-78
2022/09/19 06:14:28;;;;;;;2.22;1.20;;;;;;;7.80;77.42;101151.16;5029400;28;20032;-78
2022/09/19 06:16:54;;;;;;;1.48;1.20;;;;;;;7.86;77.40;101154.81;5034662;28;20024;-80
2022/09/19 06:19:19;;;;;;;2.25;1.10;;;;;;;7.91;77.52;101156.78;5079514;28;20555;-78
2022/09/19 06:21:45;;;;;;;1.83;1.20;;;;;;;7.93;78.03;101154.59;5069263;28;20083;-78
2022/09/19 06:24:11;;;;;;;2.35;1.30;;;;;;;7.99;78.47;101154.38;5055777;28;20031;-78
2022/09/19 06:26:36;;;;;;;2.13;1.30;;;;;;;8.05;78.87;101160.78;5059975;28;20031;-78
2022/09/19 06:29:03;;;;;;;2.03;0.90;;;;;;;8.13;79.56;101171.38;5061335;28;20036;-76
2022/09/19 06:31:29;;;;;;;1.88;1.30;;;;;;;8.20;79.73;101168.44;5044420;28;20032;-75
2022/09/19 06:33:55;;;;;;;1.33;1.10;;;;;;;8.29;79.50;101170.44;5046473;28;20039;-75
2022/09/19 06:36:20;;;;;;;2.55;1.30;;;;;;;8.39;79.65;101174.44;5081297;28;20366;-75
2022/09/19 06:38:46;;;;;;;4.07;1.30;;;;;;;8.47;79.83;101177.56;5060592;28;20035;-75
2022/09/19 06:41:11;;;;;;;2.63;1.30;;;;;;;8.58;80.24;101184.03;5078163;28;20543;-75
2022/09/19 06:43:37;;;;;;;1.50;1.10;;;;;;;8.69;79.75;101188.56;5104832;28;20039;-77
2022/09/19 06:46:03;;;;;;;2.22;1.15;;;;;;;8.81;80.77;101182.00;5081275;28;20036;-77
2022/09/19 06:48:28;;;;;;;1.92;1.30;;;;;;;8.92;80.82;101181.78;5077391;28;20082;-77
2022/09/19 06:50:54;;;;;;;3.65;1.42;;;;;;;9.06;81.56;101184.91;5080425;28;20032;-77
2022/09/19 06:53:19;;;;;;;2.58;1.40;;;;;;;9.21;80.92;101186.13;5082801;28;20036;-77
2022/09/19 06:55:45;;;;;;;2.42;1.35;;;;;;;9.34;81.03;101185.63;5102481;28;20422;-73
2022/09/19 06:58:11;;;;;;;2.20;1.30;;;;;;;9.49;80.93;101182.94;5076728;28;20534;-73
2022/09/19 07:00:38;;;;;;;2.70;1.40;;;;;;;9.63;81.03;101186.03;5079701;28;20615;-73
2022/09/19 07:03:14;;;;;;;3.65;1.52;;;;;;;9.79;80.77;101176.66;5061136;28;20048;-73
2022/09/19 07:05:42;;;;;;;3.33;1.48;;;;;;;9.95;81.04;101182.28;5100386;28;20080;-75
2022/09/19 07:08:08;;;;;;;3.63;1.75;;;;;;;10.11;83.23;101177.56;5081905;28;20039;-75
2022/09/19 07:10:36;;;;;;;3.90;2.67;;;;;;;10.26;87.84;101185.94;5079475;28;20468;-75
2022/09/19 07:13:01;;;;;;;4.80;2.10;;;;;;;10.41;85.23;101187.91;5060072;28;20501;-75
2022/09/19 07:15:35;;;;;;;2.80;1.70;;;;;;;10.59;84.47;101192.09;5059504;28;20055;-75
2022/09/19 07:18:00;;;;;;;4.22;2.38;;;;;;;10.75;87.18;101193.75;5044841;28;20452;-74
2022/09/19 07:20:26;;;;;;;2.88;2.03;;;;;;;10.90;85.03;101193.75;5084550;28;20027;-76
2022/09/19 07:23:05;;;;;;;3.05;1.80;;;;;;;11.08;83.82;101195.09;5039654;28;20028;-72
2022/09/19 07:25:31;;;;;;;3.50;2.20;;;;;;;11.23;84.53;101197.03;5052716;28;20109;-74
2022/09/19 07:28:02;;;;;;;3.90;2.75;;;;;;;11.37;86.46;101200.06;5078375;28;20115;-74
2022/09/19 07:30:28;;;;;;;4.22;3.03;;;;;;;11.53;86.93;101206.38;5038642;28;20489;-74
2022/09/19 07:32:57;;;;;;;4.88;2.15;;;;;;;11.69;84.23;101201.59;5079904;28;20385;-72
2022/09/19 07:35:25;;;;;;;4.30;2.40;;;;;;;11.85;84.99;101200.41;5103400;28;20107;-78
2022/09/19 07:37:50;;;;;;;4.43;2.47;;;;;;;11.99;85.22;101203.44;5066289;28;20036;-79
2022/09/19 07:40:16;;;;;;;6.07;3.08;;;;;;;12.13;87.10;101207.25;5067829;28;20020;-79
2022/09/19 07:42:41;;;;;;;3.95;2.35;;;;;;;12.29;85.95;101208.81;5045384;28;20024;-79
2022/09/19 07:45:07;;;;;;;6.13;3.03;;;;;;;12.43;86.55;101206.22;5078509;28;20036;-78
2022/09/19 07:47:33;;;;;;;5.65;3.10;;;;;;;12.60;85.64;101207.78;5080127;28;20115;-79
2022/09/19 07:49:58;;;;;;;4.32;1.92;;;;;;;12.75;84.21;101207.63;5051633;28;20030;-79
2022/09/19 07:52:24;;;;;;;4.55;3.10;;;;;;;12.88;86.42;101208.94;5072262;28;20036;-79
2022/09/19 07:54:50;;;;;;;5.10;2.50;;;;;;;13.03;86.08;101214.34;5052017;28;20028;-79
2022/09/19 07:57:16;;;;;;;4.75;2.22;;;;;;;13.23;82.83;101223.63;5058139;28;20028;-79
2022/09/19 07:59:41;;;;;;;4.78;2.35;;;;;;;13.39;84.02;101220.44;5044192;28;20066;-79
2022/09/19 08:02:08;;;;;;;4.32;2.78;;;;;;;13.49;84.98;101230.66;5075841;28;20052;-79
2022/09/19 08:04:34;;;;;;;5.38;2.80;;;;;;;13.59;84.33;101224.94;5064822;28;20040;-79
2022/09/19 08:07:00;;;;;;;5.10;3.28;;;;;;;13.71;84.98;101229.28;5060979;28;20420;-79
2022/09/19 08:09:25;;;;;;;7.22;3.65;;;;;;;13.82;83.71;101219.66;5060192;28;20111;-78
2022/09/19 08:11:51;;;;;;;6.82;3.40;;;;;;;13.95;84.80;101227.28;5062347;28;20028;-80
2022/09/19 08:14:16;;;;;;;6.25;4.10;;;;;;;14.07;84.84;101227.69;5060043;28;20050;-79
2022/09/19 08:16:43;;;;;;;6.40;4.40;;;;;;;14.26;83.69;101227.72;5084109;28;20031;-78
2022/09/19 08:19:09;;;;;;;6.43;3.88;;;;;;;14.40;83.20;101229.75;5064687;28;20487;-78
2022/09/19 08:21:34;;;;;;;8.02;4.00;;;;;;;14.52;83.51;101242.16;5080722;28;20071;-78
2022/09/19 08:24:00;;;;;;;5.43;4.43;;;;;;;14.70;82.82;101239.66;5043719;28;20040;-79
2022/09/19 08:26:26;;;;;;;10.73;9.57;;;;;;;14.79;82.41;101240.59;5057595;28;20033;-78
2022/09/19 08:28:51;;;;;;;7.88;6.57;;;;;;;14.94;81.43;101242.34;5043617;28;20090;-79
2022/09/19 08:31:17;;;;;;;9.30;7.10;;;;;;;15.12;81.28;101246.22;5043889;28;20443;-78
2022/09/19 08:33:43;;;;;;;11.88;6.22;;;;;;;15.28;81.30;101244.81;5078727;28;20038;-78
2022/09/19 08:36:10;;;;;;;8.60;6.35;;;;;;;15.41;81.47;101249.59;5061814;28;20032;-78
2022/09/19 08:38:36;;;;;;;6.93;4.50;;;;;;;15.59;79.91;101258.22;5061137;28;20038;-79
2022/09/19 08:41:28;;;;;;;6.75;4.20;;;;;;;15.81;80.02;101257.53;5045179;28;20028;-79
2022/09/19 08:44:08;;;;;;;8.40;4.88;;;;;;;15.95;79.89;101251.94;5056391;28;20038;-80
2022/09/19 08:46:41;;;;;;;8.93;5.40;;;;;;;16.10;78.81;101248.78;5057317;28;20075;-80
2022/09/19 08:49:12;;;;;;;6.63;4.68;;;;;;;16.22;78.37;101253.88;5051818;28;20029;-80
2022/09/19 08:52:05;;;;;;;7.55;4.68;;;;;;;16.35;78.75;101254.97;5058982;28;20036;-79
2022/09/19 08:54:33;;;;;;;5.28;3.60;;;;;;;16.49;78.19;101255.75;5061583;28;20495;-79
2022/09/19 08:56:59;;;;;;;5.63;2.95;;;;;;;16.69;77.24;101248.88;5027846;28;20028;-80
2022/09/19 08:59:26;;;;;;;4.78;2.78;;;;;;;16.78;76.13;101247.00;5055189;28;20032;-80
2022/09/19 09:01:58;;;;;;;3.25;2.10;;;;;;;16.97;75.09;101244.00;5057188;28;20141;-80
2022/09/19 09:04:30;;;;;;;6.07;1.88;;;;;;;17.20;73.87;101242.81;5042032;28;20477;-80
2022/09/19 09:07:17;;;;;;;4.80;1.75;;;;;;;17.37;72.80;101249.69;5029546;28;20043;-80
2022/09/19 09:09:57;;;;;;;5.43;1.65;;;;;;;17.54;70.76;101252.56;5056849;28;20093;-80
2022/09/19 09:12:42;;;;;;;2.42;1.20;;;;;;;17.72;70.63;101250.69;5107735;28;20028;-79
2022/09/19 09:15:36;;;;;;;3.25;1.20;;;;;;;17.87;69.86;101255.06;5059264;28;20042;-80
2022/09/19 09:18:33;;;;;;;2.55;1.15;;;;;;;17.92;67.03;101252.09;5059054;28;20028;-80
2022/09/19 09:21:08;;;;;;;3.30;1.88;;;;;;;17.95;66.59;101251.44;5080189;28;20028;-79
2022/09/19 09:23:42;;;;;;;3.58;1.63;;;;;;;17.99;64.38;101244.00;5041738;28;20028;-80
2022/09/19 09:26:25;;;;;;;4.63;1.80;;;;;;;18.07;63.81;101248.00;5068861;28;20039;-80
2022/09/19 09:29:14;;;;;;;4.63;1.42;;;;;;;18.09;63.77;101252.13;5042834;28;20044;-80
2022/09/19 09:31:46;;;;;;;2.80;1.50;;;;;;;18.23;64.18;101245.56;5044085;28;20035;-80
2022/09/19 09:34:22;;;;;;;2.85;1.50;;;;;;;18.26;63.80;101248.53;5025283;28;20516;-80
2022/09/19 09:36:58;;;;;;;2.85;1.40;;;;;;;18.43;62.25;101250.53;5049292;28;20024;-80
2022/09/19 09:39:25;;;;;;;2.03;1.10;;;;;;;18.60;62.54;101246.91;5075975;28;20106;-80
2022/09/19 09:41:55;;;;;;;4.03;1.13;;;;;;;18.70;61.80;101251.38;5065859;28;20071;-80
2022/09/19 09:44:46;;;;;;;4.50;1.05;;;;;;;18.80;61.64;101256.69;5027784;28;20087;-80
2022/09/19 09:47:19;;;;;;;3.45;1.10;;;;;;;18.86;60.59;101252.56;5058386;28;20032;-80
2022/09/19 09:49:46;;;;;;;4.97;1.20;;;;;;;18.94;59.60;101254.56;5058317;28;20107;-79
2022/09/19 09:52:19;;;;;;;2.35;1.23;;;;;;;19.01;58.04;101258.84;5073158;28;20051;-80
2022/09/19 09:58:27;;;;;;;1.45;0.75;;;;;;;19.30;56.97;101261.75;4987377;28;20121;-79
2022/09/19 10:04:23;;;;;;;2.22;0.80;;;;;;;19.52;54.74;101262.69;5047295;28;20047;-80
2022/09/19 10:07:10;;;;;;;1.70;0.90;;;;;;;19.51;53.28;101259.06;5056622;28;20439;-81
2022/09/19 10:09:38;;;;;;;3.42;0.98;;;;;;;19.55;53.30;101256.38;5044187;28;20032;-80
2022/09/19 10:12:22;;;;;;;3.13;0.77;;;;;;;19.54;52.00;101266.84;5024042;28;20032;-81
2022/09/19 10:14:47;;;;;;;4.55;0.85;;;;;;;19.68;52.83;101258.19;5076004;28;20044;-80
2022/09/19 10:17:13;;;;;;;2.33;0.90;;;;;;;19.76;51.98;101257.34;5056822;28;20035;-81
2022/09/19 10:19:44;;;;;;;3.63;1.50;;;;;;;19.72;51.39;101252.69;5035210;28;20112;-81
2022/09/19 10:22:15;;;;;;;1.92;0.95;;;;;;;19.80;51.48;101252.66;5058492;28;20028;-80
2022/09/19 10:24:51;;;;;;;2.17;0.80;;;;;;;19.95;51.20;101250.47;5049154;28;20032;-80
2022/09/19 10:27:32;;;;;;;1.63;0.80;;;;;;;20.00;50.55;101255.88;5058889;28;20036;-80
2022/09/19 10:30:06;;;;;;;1.73;1.00;;;;;;;19.94;49.38;101258.06;5072559;28;20036;-81
2022/09/19 10:32:39;;;;;;;2.63;1.20;;;;;;;20.02;49.25;101245.09;5055620;28;20028;-81
2022/09/19 10:35:30;;;;;;;3.60;0.85;;;;;;;20.01;50.00;101240.63;5038035;28;20032;-80
2022/09/19 10:38:13;;;;;;;3.85;1.30;;;;;;;19.84;49.43;101247.19;5042633;28;20036;-81
2022/09/19 10:40:55;;;;;;;3.45;0.98;;;;;;;19.86;49.45;101256.13;5060330;28;20036;-81
2022/09/19 10:43:22;;;;;;;1.40;0.90;;;;;;;19.92;50.03;101253.94;5050267;28;20644;-80
2022/09/19 10:45:48;;;;;;;4.60;1.05;;;;;;;20.01;49.37;101251.91;5049188;28;20078;-80
2022/09/19 10:48:19;;;;;;;1.80;1.00;;;;;;;20.11;49.23;101248.69;5024968;28;20024;-80
2022/09/19 10:50:47;;;;;;;2.08;0.90;;;;;;;20.12;48.50;101247.53;5068833;28;20392;-80
2022/09/19 10:53:19;;;;;;;1.60;0.80;;;;;;;20.24;48.02;101250.44;5028712;28;20024;-80
2022/09/19 10:55:45;;;;;;;1.27;0.70;;;;;;;20.34;47.78;101240.75;5037985;28;20059;-80
2022/09/19 10:58:18;;;;;;;2.42;0.90;;;;;;;20.38;47.68;101250.16;5040860;28;20427;-79
2022/09/19 11:01:04;;;;;;;2.65;0.77;;;;;;;20.47;47.56;101236.81;5060004;28;20051;-79
2022/09/19 11:03:31;;;;;;;1.27;0.70;;;;;;;20.54;46.68;101236.31;5047751;28;20025;-80
2022/09/19 11:06:24;;;;;;;2.45;0.85;;;;;;;20.57;45.89;101246.91;5040011;28;20374;-80
2022/09/19 11:08:51;;;;;;;1.50;0.73;;;;;;;20.70;46.29;101242.16;5060662;28;20047;-80
2022/09/19 11:11:25;;;;;;;1.88;0.82;;;;;;;20.79;46.61;101251.38;5046224;28;20431;-79
2022/09/19 11:14:07;;;;;;;2.88;0.90;;;;;;;20.75;46.53;101247.56;5056163;28;20075;-80
2022/09/19 11:16:53;;;;;;;3.25;0.90;;;;;;;20.83;46.05;101249.50;5054371;28;20438;-80
2022/09/19 11:19:46;;;;;;;2.90;1.00;;;;;;;20.78;45.50;101249.72;5041591;28;20028;-80
2022/09/19 11:22:36;;;;;;;2.17;0.80;;;;;;;20.84;45.92;101251.16;5059211;28;20459;-80
2022/09/19 11:25:13;;;;;;;2.80;0.85;;;;;;;20.93;45.48;101239.78;5094693;28;20083;-80
2022/09/19 11:27:45;;;;;;;1.15;0.68;;;;;;;21.03;44.76;101242.16;5063272;28;20489;-80
2022/09/19 11:30:20;;;;;;;1.38;0.60;;;;;;;21.00;45.05;101242.84;5077633;28;20036;-79
2022/09/19 11:33:04;;;;;;;2.00;0.70;;;;;;;21.02;44.71;101239.69;5053682;28;20033;-80
2022/09/19 11:35:45;;;;;;;1.52;0.77;;;;;;;21.13;44.94;101235.28;5075960;28;20032;-80
2022/09/19 11:38:32;;;;;;;3.08;0.98;;;;;;;21.23;45.28;101239.63;5061834;28;20028;-80
2022/09/19 11:41:25;;;;;;;5.05;1.02;;;;;;;21.27;44.64;101229.31;5059354;28;20780;-80
2022/09/19 11:44:00;;;;;;;1.52;0.90;;;;;;;21.29;44.81;101239.09;5031000;28;20040;-80
2022/09/19 11:46:30;;;;;;;1.63;0.70;;;;;;;21.33;43.08;101240.03;5073527;28;20039;-80
2022/09/19 11:49:08;;;;;;;1.58;0.63;;;;;;;21.39;42.37;101233.00;5043293;28;20025;-80
2022/09/19 11:51:40;;;;;;;1.13;0.63;;;;;;;21.49;42.81;101231.72;5061518;28;20369;-79
2022/09/19 11:54:44;;;;;;;4.05;1.10;;;;;;;21.58;43.55;101237.28;5071280;28;20519;-79
2022/09/19 11:57:13;;;;;;;2.25;0.70;;;;;;;21.61;41.31;101243.03;5046893;28;20143;-80
2022/09/19 11:59:41;;;;;;;2.10;0.50;;;;;;;21.52;40.45;101242.34;5073130;28;20493;-80
2022/09/19 12:02:21;;;;;;;1.02;0.60;;;;;;;21.52;40.99;101245.16;5064981;28;20086;-80